sensor_id;sensor_type;location;lat;lon;timestamp;P1;durP1;ratioP1;P2;durP2;ratioP2
31660;SDS011;18267;52.234;7.444;2023-07-24T00:01:10;1.40;;;1.20;;
31660;SDS011;18267;52.234;7.444;2023-07-24T00:03:36;2.70;;;1.65;;
31660;SDS011;18267;52.234;7.444;2023-07-24T00:06:01;1.70;;;1.45;;
31660;SDS011;18267;52.234;7.444;2023-07-24T00:08:27;2.97;;;1.88;;
31660;SDS011;18267;52.234;7.444;2023-07-24T00:10:53;1.45;;;1.33;;
31660;SDS011;18267;52.234;7.444;2023-07-24T00:13:18;4.93;;;1.88;;
31660;SDS011;18267;52.234;7.444;2023-07-24T00:15:44;3.38;;;2.08;;
31660;SDS011;18267;52.234;7.444;2023-07-24T00:18:09;1.77;;;1.55;;
31660;SDS011;18267;52.234;7.444;2023-07-24T00:20:35;3.35;;;1.95;;
31660;SDS011;18267;52.234;7.444;2023-07-24T00:23:00;2.97;;;1.83;;
31660;SDS011;18267;52.234;7.444;2023-07-24T00:25:26;3.08;;;2.03;;
31660;SDS011;18267;52.234;7.444;2023-07-24T00:27:52;5.22;;;1.73;;
31660;SDS011;18267;52.234;7.444;2023-07-24T00:30:17;2.83;;;1.73;;
31660;SDS011;18267;52.234;7.444;2023-07-24T00:32:43;1.77;;;1.23;;
31660;SDS011;18267;52.234;7.444;2023-07-24T00:35:08;2.47;;;1.80;;
31660;SDS011;18267;52.234;7.444;2023-07-24T00:37:34;2.25;;;1.73;;
31660;SDS011;18267;52.234;7.444;2023-07-24T00:40:00;1.77;;;1.67;;
31660;SDS011;18267;52.234;7.444;2023-07-24T00:42:27;3.30;;;2.00;;
31660;SDS011;18267;52.234;7.444;2023-07-24T00:44:52;2.40;;;1.83;;
31660;SDS011;18267;52.234;7.444;2023-07-24T00:47:18;2.22;;;1.55;;
31660;SDS011;18267;52.234;7.444;2023-07-24T00:49:45;2.42;;;1.83;;
31660;SDS011;18267;52.234;7.444;2023-07-24T00:52:11;4.43;;;1.73;;
31660;SDS011;18267;52.234;7.444;2023-07-24T00:54:37;2.38;;;1.50;;
31660;SDS011;18267;52.234;7.444;2023-07-24T00:57:04;1.98;;;1.40;;
31660;SDS011;18267;52.234;7.444;2023-07-24T00:59:31;3.42;;;2.10;;
31660;SDS011;18267;52.234;7.444;2023-07-24T01:01:58;1.65;;;1.50;;
31660;SDS011;18267;52.234;7.444;2023-07-24T01:04:24;1.63;;;1.45;;
31660;SDS011;18267;52.234;7.444;2023-07-24T01:06:50;2.03;;;1.13;;
31660;SDS011;18267;52.234;7.444;2023-07-24T01:09:15;3.75;;;1.63;;
31660;SDS011;18267;52.234;7.444;2023-07-24T01:11:43;1.67;;;1.55;;
31660;SDS011;18267;52.234;7.444;2023-07-24T01:14:16;2.70;;;1.67;;
31660;SDS011;18267;52.234;7.444;2023-07-24T01:17:04;1.92;;;1.70;;
31660;SDS011;18267;52.234;7.444;2023-07-24T01:19:35;1.67;;;1.52;;
31660;SDS011;18267;52.234;7.444;2023-07-24T01:27:44;2.38;;;1.45;;
31660;SDS011;18267;52.234;7.444;2023-07-24T01:30:11;2.85;;;1.58;;
31660;SDS011;18267;52.234;7.444;2023-07-24T01:32:38;1.85;;;1.50;;
31660;SDS011;18267;52.234;7.444;2023-07-24T01:35:04;2.70;;;1.38;;
31660;SDS011;18267;52.234;7.444;2023-07-24T01:37:30;3.22;;;1.38;;
31660;SDS011;18267;52.234;7.444;2023-07-24T01:39:58;3.45;;;1.50;;
31660;SDS011;18267;52.234;7.444;2023-07-24T01:42:24;2.00;;;1.60;;
31660;SDS011;18267;52.234;7.444;2023-07-24T01:44:52;2.20;;;1.55;;
31660;SDS011;18267;52.234;7.444;2023-07-24T01:47:18;2.10;;;1.63;;
31660;SDS011;18267;52.234;7.444;2023-07-24T01:49:43;2.08;;;1.65;;
31660;SDS011;18267;52.234;7.444;2023-07-24T01:52:09;2.72;;;1.65;;
31660;SDS011;18267;52.234;7.444;2023-07-24T01:54:34;3.10;;;1.90;;
31660;SDS011;18267;52.234;7.444;2023-07-24T01:57:00;2.65;;;1.40;;
31660;SDS011;18267;52.234;7.444;2023-07-24T01:59:26;3.10;;;1.85;;
31660;SDS011;18267;52.234;7.444;2023-07-24T02:01:51;3.13;;;1.42;;
31660;SDS011;18267;52.234;7.444;2023-07-24T02:04:17;4.10;;;1.55;;
31660;SDS011;18267;52.234;7.444;2023-07-24T02:06:42;2.20;;;1.63;;
31660;SDS011;18267;52.234;7.444;2023-07-24T02:09:08;2.05;;;1.90;;
31660;SDS011;18267;52.234;7.444;2023-07-24T02:11:34;2.10;;;1.90;;
31660;SDS011;18267;52.234;7.444;2023-07-24T02:14:00;4.43;;;1.55;;
31660;SDS011;18267;52.234;7.444;2023-07-24T02:16:26;1.42;;;1.30;;
31660;SDS011;18267;52.234;7.444;2023-07-24T02:18:51;8.55;;;2.00;;
31660;SDS011;18267;52.234;7.444;2023-07-24T02:21:17;2.13;;;1.67;;
31660;SDS011;18267;52.234;7.444;2023-07-24T02:23:42;12.18;;;1.70;;
31660;SDS011;18267;52.234;7.444;2023-07-24T02:26:08;2.10;;;1.60;;
31660;SDS011;18267;52.234;7.444;2023-07-24T02:28:33;3.53;;;1.75;;
31660;SDS011;18267;52.234;7.444;2023-07-24T02:30:59;6.90;;;1.35;;
31660;SDS011;18267;52.234;7.444;2023-07-24T02:33:25;2.80;;;1.35;;
31660;SDS011;18267;52.234;7.444;2023-07-24T02:35:52;2.80;;;1.77;;
31660;SDS011;18267;52.234;7.444;2023-07-24T02:38:18;2.15;;;1.67;;
31660;SDS011;18267;52.234;7.444;2023-07-24T02:40:44;1.75;;;1.60;;
31660;SDS011;18267;52.234;7.444;2023-07-24T02:43:10;2.35;;;1.67;;
31660;SDS011;18267;52.234;7.444;2023-07-24T02:45:38;3.97;;;1.75;;
31660;SDS011;18267;52.234;7.444;2023-07-24T02:48:04;1.88;;;1.65;;
31660;SDS011;18267;52.234;7.444;2023-07-24T02:50:30;1.70;;;1.60;;
31660;SDS011;18267;52.234;7.444;2023-07-24T02:52:57;3.28;;;1.85;;
31660;SDS011;18267;52.234;7.444;2023-07-24T02:55:22;5.32;;;2.00;;
31660;SDS011;18267;52.234;7.444;2023-07-24T02:57:48;2.95;;;2.25;;
31660;SDS011;18267;52.234;7.444;2023-07-24T03:00:13;2.97;;;1.90;;
31660;SDS011;18267;52.234;7.444;2023-07-24T03:02:39;9.10;;;2.20;;
31660;SDS011;18267;52.234;7.444;2023-07-24T03:05:05;4.28;;;2.67;;
31660;SDS011;18267;52.234;7.444;2023-07-24T03:07:31;2.47;;;2.28;;
31660;SDS011;18267;52.234;7.444;2023-07-24T03:09:57;3.17;;;2.38;;
31660;SDS011;18267;52.234;7.444;2023-07-24T03:12:22;4.90;;;2.17;;
31660;SDS011;18267;52.234;7.444;2023-07-24T03:14:48;4.00;;;2.25;;
31660;SDS011;18267;52.234;7.444;2023-07-24T03:17:14;3.38;;;2.65;;
31660;SDS011;18267;52.234;7.444;2023-07-24T03:19:40;3.80;;;2.53;;
31660;SDS011;18267;52.234;7.444;2023-07-24T03:22:06;3.10;;;2.50;;
31660;SDS011;18267;52.234;7.444;2023-07-24T03:24:33;6.03;;;2.70;;
31660;SDS011;18267;52.234;7.444;2023-07-24T03:26:58;3.38;;;2.47;;
31660;SDS011;18267;52.234;7.444;2023-07-24T03:29:25;2.60;;;2.30;;
31660;SDS011;18267;52.234;7.444;2023-07-24T03:31:51;3.42;;;2.10;;
31660;SDS011;18267;52.234;7.444;2023-07-24T03:34:17;8.77;;;2.70;;
31660;SDS011;18267;52.234;7.444;2023-07-24T03:36:42;12.45;;;2.83;;
31660;SDS011;18267;52.234;7.444;2023-07-24T03:39:09;7.70;;;2.83;;
31660;SDS011;18267;52.234;7.444;2023-07-24T03:41:35;4.72;;;2.80;;
31660;SDS011;18267;52.234;7.444;2023-07-24T03:44:00;4.10;;;2.88;;
31660;SDS011;18267;52.234;7.444;2023-07-24T03:46:26;7.50;;;3.55;;
31660;SDS011;18267;52.234;7.444;2023-07-24T03:48:51;7.13;;;3.42;;
31660;SDS011;18267;52.234;7.444;2023-07-24T03:51:17;7.50;;;3.30;;
31660;SDS011;18267;52.234;7.444;2023-07-24T03:53:43;12.40;;;3.30;;
31660;SDS011;18267;52.234;7.444;2023-07-24T03:56:08;4.45;;;3.30;;
31660;SDS011;18267;52.234;7.444;2023-07-24T03:58:34;9.20;;;4.28;;
31660;SDS011;18267;52.234;7.444;2023-07-24T04:00:59;9.90;;;3.88;;
31660;SDS011;18267;52.234;7.444;2023-07-24T04:03:25;10.48;;;3.92;;
31660;SDS011;18267;52.234;7.444;2023-07-24T04:05:51;5.05;;;3.85;;
31660;SDS011;18267;52.234;7.444;2023-07-24T04:08:17;7.22;;;3.55;;
31660;SDS011;18267;52.234;7.444;2023-07-24T04:10:43;4.57;;;3.60;;
31660;SDS011;18267;52.234;7.444;2023-07-24T04:13:08;10.43;;;3.80;;
31660;SDS011;18267;52.234;7.444;2023-07-24T04:15:34;4.38;;;3.85;;
31660;SDS011;18267;52.234;7.444;2023-07-24T04:17:59;9.80;;;3.83;;
31660;SDS011;18267;52.234;7.444;2023-07-24T04:20:25;5.90;;;3.83;;
31660;SDS011;18267;52.234;7.444;2023-07-24T04:22:51;8.70;;;4.38;;
31660;SDS011;18267;52.234;7.444;2023-07-24T04:25:17;7.57;;;4.85;;
31660;SDS011;18267;52.234;7.444;2023-07-24T04:27:42;9.45;;;5.32;;
31660;SDS011;18267;52.234;7.444;2023-07-24T04:30:08;5.25;;;4.22;;
31660;SDS011;18267;52.234;7.444;2023-07-24T04:32:34;8.45;;;4.97;;
31660;SDS011;18267;52.234;7.444;2023-07-24T04:34:59;8.35;;;5.25;;
31660;SDS011;18267;52.234;7.444;2023-07-24T04:37:25;8.07;;;5.22;;
31660;SDS011;18267;52.234;7.444;2023-07-24T04:39:50;6.25;;;5.05;;
31660;SDS011;18267;52.234;7.444;2023-07-24T04:42:16;9.80;;;4.88;;
31660;SDS011;18267;52.234;7.444;2023-07-24T04:44:42;7.70;;;4.82;;
31660;SDS011;18267;52.234;7.444;2023-07-24T04:47:07;10.77;;;5.50;;
31660;SDS011;18267;52.234;7.444;2023-07-24T04:49:33;8.32;;;5.63;;
31660;SDS011;18267;52.234;7.444;2023-07-24T04:51:59;8.18;;;5.05;;
31660;SDS011;18267;52.234;7.444;2023-07-24T04:54:24;10.18;;;5.57;;
31660;SDS011;18267;52.234;7.444;2023-07-24T04:56:50;9.70;;;5.63;;
31660;SDS011;18267;52.234;7.444;2023-07-24T04:59:16;6.35;;;5.38;;
31660;SDS011;18267;52.234;7.444;2023-07-24T05:01:41;10.32;;;4.95;;
31660;SDS011;18267;52.234;7.444;2023-07-24T05:04:07;9.48;;;5.65;;
31660;SDS011;18267;52.234;7.444;2023-07-24T05:06:33;8.77;;;5.15;;
31660;SDS011;18267;52.234;7.444;2023-07-24T05:09:00;12.05;;;5.57;;
31660;SDS011;18267;52.234;7.444;2023-07-24T05:11:26;9.38;;;5.43;;
31660;SDS011;18267;52.234;7.444;2023-07-24T05:13:52;12.27;;;5.53;;
31660;SDS011;18267;52.234;7.444;2023-07-24T05:16:17;9.75;;;5.28;;
31660;SDS011;18267;52.234;7.444;2023-07-24T05:18:43;7.65;;;4.45;;
31660;SDS011;18267;52.234;7.444;2023-07-24T05:21:08;10.73;;;4.82;;
31660;SDS011;18267;52.234;7.444;2023-07-24T05:23:34;10.50;;;4.75;;
31660;SDS011;18267;52.234;7.444;2023-07-24T05:26:00;11.98;;;5.65;;
31660;SDS011;18267;52.234;7.444;2023-07-24T05:28:26;7.95;;;4.32;;
31660;SDS011;18267;52.234;7.444;2023-07-24T05:30:53;7.28;;;4.63;;
31660;SDS011;18267;52.234;7.444;2023-07-24T05:33:19;8.23;;;4.05;;
31660;SDS011;18267;52.234;7.444;2023-07-24T05:35:45;10.10;;;4.00;;
31660;SDS011;18267;52.234;7.444;2023-07-24T05:38:10;5.60;;;3.65;;
31660;SDS011;18267;52.234;7.444;2023-07-24T05:40:36;3.38;;;3.05;;
31660;SDS011;18267;52.234;7.444;2023-07-24T05:43:01;9.13;;;3.47;;
31660;SDS011;18267;52.234;7.444;2023-07-24T05:45:28;6.82;;;3.38;;
31660;SDS011;18267;52.234;7.444;2023-07-24T05:47:54;4.82;;;3.00;;
31660;SDS011;18267;52.234;7.444;2023-07-24T05:50:20;10.23;;;3.15;;
31660;SDS011;18267;52.234;7.444;2023-07-24T05:52:45;8.48;;;3.13;;
31660;SDS011;18267;52.234;7.444;2023-07-24T05:55:11;3.63;;;2.20;;
31660;SDS011;18267;52.234;7.444;2023-07-24T05:57:36;7.90;;;2.75;;
31660;SDS011;18267;52.234;7.444;2023-07-24T06:00:03;3.78;;;2.30;;
31660;SDS011;18267;52.234;7.444;2023-07-24T06:02:29;2.45;;;1.70;;
31660;SDS011;18267;52.234;7.444;2023-07-24T06:04:55;3.97;;;1.60;;
31660;SDS011;18267;52.234;7.444;2023-07-24T06:07:20;2.47;;;1.67;;
31660;SDS011;18267;52.234;7.444;2023-07-24T06:09:46;1.65;;;1.50;;
31660;SDS011;18267;52.234;7.444;2023-07-24T06:12:12;1.95;;;1.65;;
31660;SDS011;18267;52.234;7.444;2023-07-24T06:14:37;2.45;;;1.55;;
31660;SDS011;18267;52.234;7.444;2023-07-24T06:17:03;3.30;;;1.35;;
31660;SDS011;18267;52.234;7.444;2023-07-24T06:19:29;1.85;;;1.30;;
31660;SDS011;18267;52.234;7.444;2023-07-24T06:21:54;2.70;;;1.20;;
31660;SDS011;18267;52.234;7.444;2023-07-24T06:24:20;7.50;;;1.83;;
31660;SDS011;18267;52.234;7.444;2023-07-24T06:26:45;1.52;;;1.27;;
31660;SDS011;18267;52.234;7.444;2023-07-24T06:29:11;2.65;;;1.10;;
31660;SDS011;18267;52.234;7.444;2023-07-24T06:31:37;2.40;;;1.23;;
31660;SDS011;18267;52.234;7.444;2023-07-24T06:34:02;2.53;;;1.17;;
31660;SDS011;18267;52.234;7.444;2023-07-24T06:36:28;2.15;;;0.95;;
31660;SDS011;18267;52.234;7.444;2023-07-24T06:38:53;1.95;;;1.00;;
31660;SDS011;18267;52.234;7.444;2023-07-24T06:41:19;0.85;;;0.73;;
31660;SDS011;18267;52.234;7.444;2023-07-24T06:43:46;1.92;;;0.82;;
31660;SDS011;18267;52.234;7.444;2023-07-24T06:46:11;0.98;;;0.70;;
31660;SDS011;18267;52.234;7.444;2023-07-24T06:48:37;1.38;;;0.88;;
31660;SDS011;18267;52.234;7.444;2023-07-24T06:51:03;1.67;;;1.00;;
31660;SDS011;18267;52.234;7.444;2023-07-24T06:53:28;4.18;;;1.67;;
31660;SDS011;18267;52.234;7.444;2023-07-24T06:55:54;1.08;;;0.65;;
31660;SDS011;18267;52.234;7.444;2023-07-24T06:58:19;1.50;;;0.90;;
31660;SDS011;18267;52.234;7.444;2023-07-24T07:00:45;1.15;;;0.80;;
31660;SDS011;18267;52.234;7.444;2023-07-24T07:03:10;2.50;;;0.70;;
31660;SDS011;18267;52.234;7.444;2023-07-24T07:05:36;1.83;;;0.95;;
31660;SDS011;18267;52.234;7.444;2023-07-24T07:08:01;1.10;;;1.00;;
31660;SDS011;18267;52.234;7.444;2023-07-24T07:10:27;0.90;;;0.80;;
31660;SDS011;18267;52.234;7.444;2023-07-24T07:12:53;1.70;;;1.05;;
31660;SDS011;18267;52.234;7.444;2023-07-24T07:15:18;1.27;;;1.10;;
31660;SDS011;18267;52.234;7.444;2023-07-24T07:17:44;1.58;;;1.42;;
31660;SDS011;18267;52.234;7.444;2023-07-24T07:20:09;1.52;;;1.42;;
31660;SDS011;18267;52.234;7.444;2023-07-24T07:22:35;1.48;;;1.38;;
31660;SDS011;18267;52.234;7.444;2023-07-24T07:25:00;2.22;;;1.27;;
31660;SDS011;18267;52.234;7.444;2023-07-24T07:27:26;1.80;;;1.67;;
31660;SDS011;18267;52.234;7.444;2023-07-24T07:29:52;4.32;;;1.70;;
31660;SDS011;18267;52.234;7.444;2023-07-24T07:32:17;4.38;;;1.67;;
31660;SDS011;18267;52.234;7.444;2023-07-24T08:36:45;9.23;;;4.60;;
31660;SDS011;18267;52.234;7.444;2023-07-24T08:47:03;6.60;;;5.15;;
31660;SDS011;18267;52.234;7.444;2023-07-24T08:56:41;7.25;;;4.82;;
31660;SDS011;18267;52.234;7.444;2023-07-24T09:02:42;7.95;;;5.38;;
31660;SDS011;18267;52.234;7.444;2023-07-24T09:06:06;13.10;;;6.63;;
31660;SDS011;18267;52.234;7.444;2023-07-24T09:08:43;6.22;;;5.57;;
31660;SDS011;18267;52.234;7.444;2023-07-24T09:22:34;11.55;;;5.80;;
31660;SDS011;18267;52.234;7.444;2023-07-24T09:25:12;6.82;;;4.85;;
31660;SDS011;18267;52.234;7.444;2023-07-24T09:27:41;7.40;;;4.88;;
31660;SDS011;18267;52.234;7.444;2023-07-24T09:30:14;7.10;;;4.47;;
31660;SDS011;18267;52.234;7.444;2023-07-24T09:32:55;8.98;;;4.72;;
31660;SDS011;18267;52.234;7.444;2023-07-24T09:36:04;6.45;;;4.93;;
31660;SDS011;18267;52.234;7.444;2023-07-24T09:38:35;8.32;;;5.38;;
31660;SDS011;18267;52.234;7.444;2023-07-24T09:45:26;7.88;;;5.53;;
31660;SDS011;18267;52.234;7.444;2023-07-24T09:48:06;7.53;;;5.18;;
31660;SDS011;18267;52.234;7.444;2023-07-24T10:03:48;8.07;;;4.53;;
31660;SDS011;18267;52.234;7.444;2023-07-24T10:21:06;8.82;;;4.68;;
31660;SDS011;18267;52.234;7.444;2023-07-24T10:27:23;10.13;;;5.05;;
31660;SDS011;18267;52.234;7.444;2023-07-24T11:09:55;7.85;;;6.00;;
31660;SDS011;18267;52.234;7.444;2023-07-24T11:12:20;8.73;;;6.97;;
31660;SDS011;18267;52.234;7.444;2023-07-24T11:14:51;9.82;;;5.97;;
31660;SDS011;18267;52.234;7.444;2023-07-24T11:17:32;8.45;;;5.32;;
31660;SDS011;18267;52.234;7.444;2023-07-24T11:20:12;8.48;;;6.13;;
31660;SDS011;18267;52.234;7.444;2023-07-24T11:22:39;6.18;;;4.65;;
31660;SDS011;18267;52.234;7.444;2023-07-24T11:25:06;4.65;;;4.03;;
31660;SDS011;18267;52.234;7.444;2023-07-24T11:27:32;5.00;;;3.45;;
31660;SDS011;18267;52.234;7.444;2023-07-24T11:29:58;4.65;;;3.03;;
31660;SDS011;18267;52.234;7.444;2023-07-24T11:32:24;4.28;;;3.38;;
31660;SDS011;18267;52.234;7.444;2023-07-24T11:34:50;4.18;;;3.35;;
31660;SDS011;18267;52.234;7.444;2023-07-24T11:37:16;4.22;;;3.10;;
31660;SDS011;18267;52.234;7.444;2023-07-24T11:39:43;3.28;;;3.00;;
31660;SDS011;18267;52.234;7.444;2023-07-24T11:42:19;6.85;;;3.80;;
31660;SDS011;18267;52.234;7.444;2023-07-24T11:44:45;8.00;;;4.88;;
31660;SDS011;18267;52.234;7.444;2023-07-24T11:47:10;6.53;;;4.50;;
31660;SDS011;18267;52.234;7.444;2023-07-24T11:49:36;4.75;;;4.30;;
31660;SDS011;18267;52.234;7.444;2023-07-24T11:52:05;7.50;;;4.38;;
31660;SDS011;18267;52.234;7.444;2023-07-24T11:54:34;3.58;;;3.28;;
31660;SDS011;18267;52.234;7.444;2023-07-24T11:57:00;5.78;;;3.30;;
31660;SDS011;18267;52.234;7.444;2023-07-24T11:59:26;4.07;;;3.17;;
31660;SDS011;18267;52.234;7.444;2023-07-24T12:01:52;6.15;;;3.03;;
31660;SDS011;18267;52.234;7.444;2023-07-24T12:04:18;4.82;;;3.00;;
31660;SDS011;18267;52.234;7.444;2023-07-24T12:06:45;5.18;;;3.10;;
31660;SDS011;18267;52.234;7.444;2023-07-24T12:09:14;4.30;;;2.95;;
31660;SDS011;18267;52.234;7.444;2023-07-24T12:11:43;5.13;;;3.20;;
31660;SDS011;18267;52.234;7.444;2023-07-24T12:14:09;3.38;;;2.65;;
31660;SDS011;18267;52.234;7.444;2023-07-24T12:16:35;4.30;;;3.00;;
31660;SDS011;18267;52.234;7.444;2023-07-24T12:19:01;3.33;;;2.88;;
31660;SDS011;18267;52.234;7.444;2023-07-24T12:21:27;4.32;;;2.88;;
31660;SDS011;18267;52.234;7.444;2023-07-24T12:23:52;3.40;;;2.65;;
31660;SDS011;18267;52.234;7.444;2023-07-24T12:26:18;3.67;;;2.25;;
31660;SDS011;18267;52.234;7.444;2023-07-24T12:28:43;6.35;;;2.78;;
31660;SDS011;18267;52.234;7.444;2023-07-24T12:31:09;3.72;;;2.78;;
31660;SDS011;18267;52.234;7.444;2023-07-24T12:33:35;3.63;;;2.97;;
31660;SDS011;18267;52.234;7.444;2023-07-24T12:36:00;3.28;;;2.90;;
31660;SDS011;18267;52.234;7.444;2023-07-24T12:38:26;3.45;;;2.92;;
31660;SDS011;18267;52.234;7.444;2023-07-24T12:40:52;3.42;;;2.72;;
31660;SDS011;18267;52.234;7.444;2023-07-24T12:43:18;4.63;;;3.08;;
31660;SDS011;18267;52.234;7.444;2023-07-24T12:45:43;6.18;;;3.08;;
31660;SDS011;18267;52.234;7.444;2023-07-24T12:48:09;3.40;;;2.60;;
31660;SDS011;18267;52.234;7.444;2023-07-24T12:50:35;5.10;;;2.47;;
31660;SDS011;18267;52.234;7.444;2023-07-24T12:53:00;6.22;;;2.40;;
31660;SDS011;18267;52.234;7.444;2023-07-24T12:55:26;3.22;;;2.25;;
31660;SDS011;18267;52.234;7.444;2023-07-24T12:57:52;3.20;;;2.30;;
31660;SDS011;18267;52.234;7.444;2023-07-24T13:00:18;2.63;;;1.77;;
31660;SDS011;18267;52.234;7.444;2023-07-24T13:02:43;2.40;;;1.77;;
31660;SDS011;18267;52.234;7.444;2023-07-24T13:05:09;1.65;;;1.55;;
31660;SDS011;18267;52.234;7.444;2023-07-24T13:07:34;2.03;;;1.73;;
31660;SDS011;18267;52.234;7.444;2023-07-24T13:10:00;5.00;;;2.13;;
31660;SDS011;18267;52.234;7.444;2023-07-24T13:12:26;3.70;;;1.92;;
31660;SDS011;18267;52.234;7.444;2023-07-24T13:14:51;2.72;;;2.20;;
31660;SDS011;18267;52.234;7.444;2023-07-24T13:17:17;2.55;;;1.95;;
31660;SDS011;18267;52.234;7.444;2023-07-24T13:19:42;1.63;;;1.52;;
31660;SDS011;18267;52.234;7.444;2023-07-24T13:22:08;3.55;;;1.95;;
31660;SDS011;18267;52.234;7.444;2023-07-24T13:24:33;3.72;;;1.65;;
31660;SDS011;18267;52.234;7.444;2023-07-24T13:26:59;1.80;;;1.40;;
31660;SDS011;18267;52.234;7.444;2023-07-24T13:29:25;3.13;;;1.40;;
31660;SDS011;18267;52.234;7.444;2023-07-24T13:31:50;2.20;;;1.50;;
31660;SDS011;18267;52.234;7.444;2023-07-24T13:34:19;1.95;;;1.50;;
31660;SDS011;18267;52.234;7.444;2023-07-24T13:36:45;2.72;;;2.20;;
31660;SDS011;18267;52.234;7.444;2023-07-24T13:39:12;4.43;;;1.60;;
31660;SDS011;18267;52.234;7.444;2023-07-24T13:41:37;2.38;;;2.13;;
31660;SDS011;18267;52.234;7.444;2023-07-24T13:44:04;2.38;;;2.17;;
31660;SDS011;18267;52.234;7.444;2023-07-24T13:46:29;5.03;;;2.45;;
31660;SDS011;18267;52.234;7.444;2023-07-24T13:48:55;4.93;;;2.70;;
31660;SDS011;18267;52.234;7.444;2023-07-24T13:51:20;2.45;;;2.17;;
31660;SDS011;18267;52.234;7.444;2023-07-24T13:53:46;2.50;;;2.30;;
31660;SDS011;18267;52.234;7.444;2023-07-24T13:56:14;2.28;;;2.08;;
31660;SDS011;18267;52.234;7.444;2023-07-24T13:58:39;3.05;;;2.00;;
31660;SDS011;18267;52.234;7.444;2023-07-24T14:01:05;3.20;;;2.17;;
31660;SDS011;18267;52.234;7.444;2023-07-24T14:03:32;3.28;;;2.65;;
31660;SDS011;18267;52.234;7.444;2023-07-24T14:05:58;2.90;;;2.47;;
31660;SDS011;18267;52.234;7.444;2023-07-24T14:08:23;2.53;;;2.33;;
31660;SDS011;18267;52.234;7.444;2023-07-24T14:10:50;7.00;;;2.75;;
31660;SDS011;18267;52.234;7.444;2023-07-24T14:13:16;2.97;;;2.55;;
31660;SDS011;18267;52.234;7.444;2023-07-24T14:15:41;3.63;;;3.05;;
31660;SDS011;18267;52.234;7.444;2023-07-24T14:18:07;3.33;;;2.10;;
31660;SDS011;18267;52.234;7.444;2023-07-24T14:20:33;5.43;;;2.40;;
31660;SDS011;18267;52.234;7.444;2023-07-24T14:22:58;3.33;;;2.10;;
31660;SDS011;18267;52.234;7.444;2023-07-24T14:25:24;3.17;;;2.03;;
31660;SDS011;18267;52.234;7.444;2023-07-24T14:27:49;2.45;;;2.10;;
31660;SDS011;18267;52.234;7.444;2023-07-24T14:30:15;5.13;;;2.50;;
31660;SDS011;18267;52.234;7.444;2023-07-24T14:32:41;7.65;;;2.33;;
31660;SDS011;18267;52.234;7.444;2023-07-24T14:35:06;3.42;;;2.45;;
31660;SDS011;18267;52.234;7.444;2023-07-24T14:37:32;4.10;;;3.00;;
31660;SDS011;18267;52.234;7.444;2023-07-24T14:39:57;4.47;;;4.07;;
31660;SDS011;18267;52.234;7.444;2023-07-24T14:42:23;4.68;;;3.20;;
31660;SDS011;18267;52.234;7.444;2023-07-24T14:44:49;3.20;;;2.90;;
31660;SDS011;18267;52.234;7.444;2023-07-24T14:47:15;3.90;;;3.15;;
31660;SDS011;18267;52.234;7.444;2023-07-24T14:49:40;4.78;;;3.40;;
31660;SDS011;18267;52.234;7.444;2023-07-24T14:52:06;5.47;;;3.22;;
31660;SDS011;18267;52.234;7.444;2023-07-24T14:54:32;4.55;;;3.55;;
31660;SDS011;18267;52.234;7.444;2023-07-24T14:56:57;7.32;;;3.75;;
31660;SDS011;18267;52.234;7.444;2023-07-24T14:59:23;3.45;;;3.13;;
31660;SDS011;18267;52.234;7.444;2023-07-24T15:01:49;4.22;;;3.80;;
31660;SDS011;18267;52.234;7.444;2023-07-24T15:04:14;4.03;;;3.60;;
31660;SDS011;18267;52.234;7.444;2023-07-24T15:06:40;5.70;;;4.25;;
31660;SDS011;18267;52.234;7.444;2023-07-24T15:09:06;7.28;;;3.75;;
31660;SDS011;18267;52.234;7.444;2023-07-24T15:11:31;4.15;;;3.60;;
31660;SDS011;18267;52.234;7.444;2023-07-24T15:13:57;10.00;;;4.13;;
31660;SDS011;18267;52.234;7.444;2023-07-24T15:16:22;8.13;;;4.68;;
31660;SDS011;18267;52.234;7.444;2023-07-24T15:18:48;7.03;;;4.32;;
31660;SDS011;18267;52.234;7.444;2023-07-24T15:21:14;7.03;;;3.97;;
31660;SDS011;18267;52.234;7.444;2023-07-24T15:23:39;5.30;;;3.92;;
31660;SDS011;18267;52.234;7.444;2023-07-24T15:26:05;5.75;;;3.95;;
31660;SDS011;18267;52.234;7.444;2023-07-24T15:28:30;4.05;;;3.25;;
31660;SDS011;18267;52.234;7.444;2023-07-24T15:30:56;9.05;;;3.92;;
31660;SDS011;18267;52.234;7.444;2023-07-24T15:33:21;8.43;;;3.75;;
31660;SDS011;18267;52.234;7.444;2023-07-24T15:35:47;4.50;;;3.45;;
31660;SDS011;18267;52.234;7.444;2023-07-24T15:38:14;3.47;;;3.17;;
31660;SDS011;18267;52.234;7.444;2023-07-24T15:40:39;4.43;;;3.55;;
31660;SDS011;18267;52.234;7.444;2023-07-24T15:43:05;4.35;;;3.95;;
31660;SDS011;18267;52.234;7.444;2023-07-24T15:45:31;7.13;;;4.13;;
31660;SDS011;18267;52.234;7.444;2023-07-24T15:47:57;8.10;;;4.63;;
31660;SDS011;18267;52.234;7.444;2023-07-24T15:50:22;6.70;;;4.60;;
31660;SDS011;18267;52.234;7.444;2023-07-24T15:52:48;5.38;;;4.60;;
31660;SDS011;18267;52.234;7.444;2023-07-24T15:55:14;7.57;;;4.85;;
31660;SDS011;18267;52.234;7.444;2023-07-24T15:57:39;7.35;;;4.18;;
31660;SDS011;18267;52.234;7.444;2023-07-24T16:00:05;8.27;;;3.80;;
31660;SDS011;18267;52.234;7.444;2023-07-24T16:02:33;11.20;;;4.45;;
31660;SDS011;18267;52.234;7.444;2023-07-24T16:04:59;6.15;;;4.15;;
31660;SDS011;18267;52.234;7.444;2023-07-24T16:07:25;9.55;;;4.40;;
31660;SDS011;18267;52.234;7.444;2023-07-24T16:09:51;5.03;;;3.92;;
31660;SDS011;18267;52.234;7.444;2023-07-24T16:12:16;5.57;;;3.70;;
31660;SDS011;18267;52.234;7.444;2023-07-24T16:14:42;6.90;;;4.47;;
31660;SDS011;18267;52.234;7.444;2023-07-24T16:17:07;10.85;;;5.07;;
31660;SDS011;18267;52.234;7.444;2023-07-24T16:19:33;5.20;;;4.68;;
31660;SDS011;18267;52.234;7.444;2023-07-24T16:21:59;8.90;;;2.83;;
31660;SDS011;18267;52.234;7.444;2023-07-24T16:24:24;3.97;;;1.70;;
31660;SDS011;18267;52.234;7.444;2023-07-24T16:26:50;1.80;;;1.50;;
31660;SDS011;18267;52.234;7.444;2023-07-24T16:29:15;1.92;;;0.90;;
31660;SDS011;18267;52.234;7.444;2023-07-24T16:31:41;1.30;;;1.20;;
31660;SDS011;18267;52.234;7.444;2023-07-24T16:34:07;1.73;;;1.48;;
31660;SDS011;18267;52.234;7.444;2023-07-24T16:36:33;1.60;;;1.50;;
31660;SDS011;18267;52.234;7.444;2023-07-24T16:39:00;2.40;;;1.80;;
31660;SDS011;18267;52.234;7.444;2023-07-24T16:41:27;1.80;;;1.60;;
31660;SDS011;18267;52.234;7.444;2023-07-24T16:43:53;2.78;;;2.03;;
31660;SDS011;18267;52.234;7.444;2023-07-24T16:46:18;3.97;;;1.95;;
31660;SDS011;18267;52.234;7.444;2023-07-24T16:48:44;2.47;;;2.00;;
31660;SDS011;18267;52.234;7.444;2023-07-24T16:51:13;4.13;;;1.88;;
31660;SDS011;18267;52.234;7.444;2023-07-24T16:53:39;2.58;;;2.13;;
31660;SDS011;18267;52.234;7.444;2023-07-24T16:56:04;2.80;;;2.30;;
31660;SDS011;18267;52.234;7.444;2023-07-24T16:58:30;4.57;;;2.28;;
31660;SDS011;18267;52.234;7.444;2023-07-24T17:00:55;4.90;;;2.10;;
31660;SDS011;18267;52.234;7.444;2023-07-24T17:03:21;3.22;;;2.10;;
31660;SDS011;18267;52.234;7.444;2023-07-24T17:05:47;2.13;;;1.75;;
31660;SDS011;18267;52.234;7.444;2023-07-24T17:08:12;2.17;;;1.95;;
31660;SDS011;18267;52.234;7.444;2023-07-24T17:10:40;2.75;;;2.05;;
31660;SDS011;18267;52.234;7.444;2023-07-24T17:13:07;6.38;;;2.08;;
31660;SDS011;18267;52.234;7.444;2023-07-24T17:15:33;3.08;;;2.38;;
31660;SDS011;18267;52.234;7.444;2023-07-24T17:17:58;4.88;;;2.78;;
31660;SDS011;18267;52.234;7.444;2023-07-24T17:20:24;4.38;;;2.53;;
31660;SDS011;18267;52.234;7.444;2023-07-24T17:22:50;4.40;;;3.10;;
31660;SDS011;18267;52.234;7.444;2023-07-24T17:25:15;4.13;;;2.92;;
31660;SDS011;18267;52.234;7.444;2023-07-24T17:27:41;3.63;;;2.97;;
31660;SDS011;18267;52.234;7.444;2023-07-24T17:30:06;3.17;;;2.90;;
31660;SDS011;18267;52.234;7.444;2023-07-24T17:32:32;3.95;;;3.33;;
31660;SDS011;18267;52.234;7.444;2023-07-24T17:34:58;4.32;;;3.22;;
31660;SDS011;18267;52.234;7.444;2023-07-24T17:37:23;4.28;;;2.90;;